Time,TemperatureF,DewpointF,PressureIn,WindDirection,WindDirectionDegrees,WindSpeedMPH,WindSpeedGustMPH,Humidity,HourlyPrecipIn,Conditions,Clouds,dailyrainin,SoftwareType,DateUTC
2013-06-09 00:02:00,55.7,52.2,29.91,ENE,68,7.3,15.4,88,0.02,,,0.00,WUHU216HW,2013-06-09 05:02:00,
2013-06-09 00:07:00,55.7,52.2,29.91,ESE,113,15.6,15.6,88,0.02,,,0.00,WUHU216HW,2013-06-09 05:07:00,
2013-06-09 00:12:00,55.9,52.4,29.91,ESE,113,9.8,15.6,88,0.02,,,0.00,WUHU216HW,2013-06-09 05:12:00,
2013-06-09 00:17:00,55.7,52.2,29.91,ESE,113,13.4,13.4,88,0.02,,,0.00,WUHU216HW,2013-06-09 05:17:00,
2013-06-09 00:22:00,55.7,52.2,29.91,SE,135,13.6,13.6,88,0.02,,,0.00,WUHU216HW,2013-06-09 05:22:00,
2013-06-09 00:27:00,55.7,52.2,29.91,East,82,14.3,17.9,88,0.02,,,0.00,WUHU216HW,2013-06-09 05:27:00,
2013-06-09 00:32:00,55.7,52.0,29.91,ESE,113,10.3,17.9,88,0.02,,,0.00,WUHU216HW,2013-06-09 05:32:00,
2013-06-09 00:37:00,55.5,52.0,29.91,ENE,68,6.9,17.3,88,0.02,,,0.00,WUHU216HW,2013-06-09 05:37:00,
2013-06-09 00:42:00,55.5,52.0,29.91,ESE,102,11.8,13.4,88,0.04,,,0.02,WUHU216HW,2013-06-09 05:42:00,
2013-06-09 00:47:00,55.5,52.0,29.91,East,90,12.3,13.6,88,0.04,,,0.02,WUHU216HW,2013-06-09 05:47:00,
2013-06-09 00:52:00,55.5,52.0,29.91,SE,135,5.8,13.6,88,0.02,,,0.02,WUHU216HW,2013-06-09 05:52:00,
2013-06-09 00:57:00,55.5,52.0,29.92,East,101,5.5,12.3,88,0.02,,,0.02,WUHU216HW,2013-06-09 05:57:00,
2013-06-09 01:02:00,55.5,52.0,29.91,ESE,113,12.5,13.6,88,0.02,,,0.02,WUHU216HW,2013-06-09 06:02:00,
2013-06-09 01:07:00,55.4,51.8,29.91,ESE,113,13.9,13.9,88,0.02,,,0.02,WUHU216HW,2013-06-09 06:07:00,
2013-06-09 01:12:00,55.4,51.8,29.91,East,90,11.4,13.9,88,0.02,,,0.02,WUHU216HW,2013-06-09 06:12:00,
2013-06-09 01:17:00,55.4,51.8,29.91,ESE,113,13.9,13.9,88,0.02,,,0.02,WUHU216HW,2013-06-09 06:17:00,
2013-06-09 01:22:00,55.4,51.8,29.91,ESE,108,10.0,13.9,88,0.02,,,0.02,WUHU216HW,2013-06-09 06:22:00,
2013-06-09 01:27:00,55.5,52.0,29.91,East,90,12.3,12.3,88,0.02,,,0.02,WUHU216HW,2013-06-09 06:27:00,
2013-06-09 01:32:00,55.5,52.0,29.91,East,90,8.4,12.3,88,0.02,,,0.02,WUHU216HW,2013-06-09 06:32:00,
2013-06-09 01:37:00,55.5,52.0,29.91,East,90,11.4,12.3,88,0.02,,,0.02,WUHU216HW,2013-06-09 06:37:00,
2013-06-09 01:42:00,55.5,52.3,29.91,East,90,11.4,11.4,89,0.03,,,0.05,WUHU216HW,2013-06-09 06:42:00,
2013-06-09 01:47:00,55.4,52.1,29.91,ESE,113,10.6,11.4,89,0.03,,,0.05,WUHU216HW,2013-06-09 06:47:00,
2013-06-09 01:52:00,55.2,52.0,29.91,East,90,10.2,11.4,89,0.03,,,0.05,WUHU216HW,2013-06-09 06:52:00,
2013-06-09 01:57:00,55.2,52.0,29.91,ESE,113,9.8,10.9,89,0.03,,,0.05,WUHU216HW,2013-06-09 06:57:00,
2013-06-09 02:02:00,55.0,51.8,29.91,ESE,113,13.4,13.4,89,0.03,,,0.05,WUHU216HW,2013-06-09 07:02:00,
2013-06-09 02:07:00,55.0,51.8,29.91,East,90,8.6,13.4,89,0.03,,,0.05,WUHU216HW,2013-06-09 07:07:00,
2013-06-09 02:12:00,54.8,51.6,29.91,ESE,113,10.3,13.4,89,0.03,,,0.05,WUHU216HW,2013-06-09 07:12:00,
2013-06-09 02:17:00,54.6,51.4,29.91,East,90,12.3,12.3,89,0.03,,,0.05,WUHU216HW,2013-06-09 07:17:00,
2013-06-09 02:22:00,54.5,51.2,29.91,East,90,10.4,13.1,89,0.03,,,0.05,WUHU216HW,2013-06-09 07:22:00,
2013-06-09 02:27:00,54.5,51.2,29.91,ESE,113,8.6,13.1,89,0.05,,,0.07,WUHU216HW,2013-06-09 07:27:00,
2013-06-09 02:32:00,54.5,51.2,29.91,East,90,15.9,15.9,89,0.07,,,0.09,WUHU216HW,2013-06-09 07:32:00,
2013-06-09 02:37:00,54.3,51.1,29.91,ESE,113,10.3,15.9,89,0.07,,,0.09,WUHU216HW,2013-06-09 07:37:00,
2013-06-09 02:42:00,54.3,51.1,29.91,East,90,12.3,13.1,89,0.06,,,0.11,WUHU216HW,2013-06-09 07:42:00,
2013-06-09 02:47:00,54.3,51.1,29.91,East,90,10.6,13.1,89,0.06,,,0.11,WUHU216HW,2013-06-09 07:47:00,
2013-06-09 02:52:00,54.3,51.1,29.91,ESE,102,8.9,12.0,89,0.06,,,0.11,WUHU216HW,2013-06-09 07:52:00,
2013-06-09 02:57:00,54.3,51.1,29.90,East,90,10.0,12.0,89,0.06,,,0.11,WUHU216HW,2013-06-09 07:57:00,
2013-06-09 03:02:00,54.3,51.1,29.90,ESE,113,6.1,10.3,89,0.08,,,0.13,WUHU216HW,2013-06-09 08:02:00,
2013-06-09 03:07:00,54.3,51.1,29.90,East,90,7.6,10.3,89,0.08,,,0.13,WUHU216HW,2013-06-09 08:07:00,
2013-06-09 03:12:00,54.3,51.1,29.90,East,90,5.8,10.3,89,0.08,,,0.13,WUHU216HW,2013-06-09 08:12:00,
2013-06-09 03:17:00,54.3,51.1,29.91,East,90,3.9,8.4,89,0.10,,,0.15,WUHU216HW,2013-06-09 08:17:00,
2013-06-09 03:22:00,54.3,51.4,29.90,East,90,9.6,11.1,90,0.08,,,0.15,WUHU216HW,2013-06-09 08:22:00,
2013-06-09 03:27:00,54.3,51.4,29.90,East,90,8.4,11.1,90,0.10,,,0.17,WUHU216HW,2013-06-09 08:27:00,
2013-06-09 03:32:00,54.3,51.4,29.90,East,90,7.5,8.4,90,0.10,,,0.19,WUHU216HW,2013-06-09 08:32:00,
2013-06-09 03:37:00,54.3,51.4,29.90,East,90,7.5,8.0,90,0.10,,,0.19,WUHU216HW,2013-06-09 08:37:00,
2013-06-09 03:42:00,54.3,51.4,29.90,ESE,113,7.5,7.5,90,0.08,,,0.19,WUHU216HW,2013-06-09 08:42:00,
2013-06-09 03:47:00,54.3,51.4,29.90,East,90,8.0,8.0,90,0.08,,,0.19,WUHU216HW,2013-06-09 08:47:00,
2013-06-09 03:52:00,54.3,51.4,29.90,East,90,6.7,8.6,90,0.10,,,0.21,WUHU216HW,2013-06-09 08:52:00,
2013-06-09 03:57:00,54.1,51.2,29.90,East,90,6.1,8.6,90,0.08,,,0.21,WUHU216HW,2013-06-09 08:57:00,
2013-06-09 04:02:00,54.1,51.2,29.90,East,90,5.5,6.1,90,0.10,,,0.23,WUHU216HW,2013-06-09 09:02:00,
2013-06-09 04:07:00,54.3,51.4,29.90,East,90,8.0,8.0,90,0.10,,,0.23,WUHU216HW,2013-06-09 09:07:00,
2013-06-09 04:12:00,54.1,51.2,29.90,ENE,68,0.0,8.0,90,0.10,,,0.23,WUHU216HW,2013-06-09 09:12:00,
2013-06-09 04:17:00,54.3,51.4,29.90,ESE,113,8.0,8.0,90,0.08,,,0.23,WUHU216HW,2013-06-09 09:17:00,
2013-06-09 04:22:00,54.3,51.4,29.90,East,90,8.6,8.6,90,0.10,,,0.25,WUHU216HW,2013-06-09 09:22:00,
2013-06-09 04:27:00,54.3,51.4,29.90,East,90,8.9,8.9,90,0.08,,,0.25,WUHU216HW,2013-06-09 09:27:00,
2013-06-09 04:32:00,54.3,51.4,29.89,East,90,9.8,9.8,90,0.08,,,0.27,WUHU216HW,2013-06-09 09:32:00,
2013-06-09 04:37:00,54.3,51.4,29.89,ENE,68,10.0,10.0,90,0.08,,,0.27,WUHU216HW,2013-06-09 09:37:00,
2013-06-09 04:42:00,54.3,51.4,29.89,East,90,2.1,10.0,90,0.08,,,0.27,WUHU216HW,2013-06-09 09:42:00,
2013-06-09 04:47:00,54.3,51.4,29.89,ESE,113,7.8,10.0,90,0.06,,,0.27,WUHU216HW,2013-06-09 09:47:00,
2013-06-09 04:52:00,54.3,51.4,29.89,ESE,113,10.0,10.0,90,0.08,,,0.29,WUHU216HW,2013-06-09 09:52:00,
2013-06-09 04:57:00,54.3,51.4,29.89,ESE,113,8.0,10.0,90,0.06,,,0.29,WUHU216HW,2013-06-09 09:57:00,
2013-06-09 05:02:00,54.3,51.4,29.89,East,90,10.0,16.4,90,0.06,,,0.29,WUHU216HW,2013-06-09 10:02:00,
2013-06-09 05:07:00,54.3,51.4,29.89,East,90,0.0,16.4,90,0.06,,,0.29,WUHU216HW,2013-06-09 10:07:00,
2013-06-09 05:12:00,54.3,51.4,29.89,East,90,7.5,8.4,90,0.06,,,0.29,WUHU216HW,2013-06-09 10:12:00,
2013-06-09 05:17:00,54.3,51.4,29.89,East,90,0.0,10.3,90,0.06,,,0.31,WUHU216HW,2013-06-09 10:17:00,
2013-06-09 05:22:00,54.3,51.4,29.89,NE,45,2.5,10.3,90,0.06,,,0.31,WUHU216HW,2013-06-09 10:22:00,
2013-06-09 05:27:00,54.3,51.4,29.89,East,90,0.0,5.5,90,0.06,,,0.31,WUHU216HW,2013-06-09 10:27:00,
2013-06-09 05:32:00,54.3,51.4,29.89,East,90,0.0,5.5,90,0.04,,,0.31,WUHU216HW,2013-06-09 10:32:00,
2013-06-09 05:37:00,54.3,51.4,29.89,ENE,68,0.0,0.0,90,0.04,,,0.31,WUHU216HW,2013-06-09 10:37:00,
2013-06-09 05:42:00,54.1,51.2,29.89,ENE,68,0.0,1.0,90,0.04,,,0.31,WUHU216HW,2013-06-09 10:42:00,
2013-06-09 05:47:00,54.1,51.2,29.89,East,90,4.1,4.1,90,0.02,,,0.31,WUHU216HW,2013-06-09 10:47:00,
2013-06-09 05:52:00,54.1,51.2,29.89,ESE,113,0.0,4.1,90,0.02,,,0.31,WUHU216HW,2013-06-09 10:52:00,
2013-06-09 05:58:00,54.1,51.2,29.89,SE,135,3.3,4.1,90,0.02,,,0.31,WUHU216HW,2013-06-09 10:58:00,
2013-06-09 06:03:00,54.1,51.2,29.89,ESE,113,3.0,3.3,90,0.02,,,0.31,WUHU216HW,2013-06-09 11:03:00,
2013-06-09 06:08:00,54.3,51.4,29.89,East,90,0.0,3.0,90,0.04,,,0.33,WUHU216HW,2013-06-09 11:08:00,
2013-06-09 06:13:00,54.3,51.4,29.89,East,90,0.0,0.0,90,0.04,,,0.33,WUHU216HW,2013-06-09 11:13:00,
2013-06-09 06:18:00,54.1,51.2,29.89,SE,135,3.0,4.1,90,0.02,,,0.33,WUHU216HW,2013-06-09 11:18:00,
2013-06-09 06:22:00,54.1,51.2,29.89,ESE,113,0.0,4.1,90,0.02,,,0.33,WUHU216HW,2013-06-09 11:22:00,
2013-06-09 06:28:00,54.1,51.2,29.89,ENE,68,0.0,0.0,90,0.02,,,0.33,WUHU216HW,2013-06-09 11:28:00,
2013-06-09 06:33:00,54.1,51.2,29.89,East,90,8.9,8.9,90,0.02,,,0.33,WUHU216HW,2013-06-09 11:33:00,
2013-06-09 06:38:00,54.3,51.4,29.89,ESE,113,5.3,8.9,90,0.02,,,0.33,WUHU216HW,2013-06-09 11:38:00,
2013-06-09 06:43:00,54.3,51.4,29.89,East,90,6.6,8.9,90,0.02,,,0.33,WUHU216HW,2013-06-09 11:43:00,
2013-06-09 06:48:00,54.3,51.4,29.89,East,90,0.0,6.6,90,0.02,,,0.33,WUHU216HW,2013-06-09 11:48:00,
2013-06-09 06:53:00,54.3,51.4,29.89,ENE,68,0.0,0.0,90,0.02,,,0.33,WUHU216HW,2013-06-09 11:53:00,
2013-06-09 06:58:00,54.3,51.4,29.89,East,90,0.0,0.0,90,0.04,,,0.35,WUHU216HW,2013-06-09 11:58:00,
2013-06-09 07:03:00,54.3,51.4,29.90,East,90,0.0,0.0,90,0.04,,,0.35,WUHU216HW,2013-06-09 12:03:00,
2013-06-09 07:08:00,54.5,51.6,29.90,ESE,113,0.0,0.0,90,0.02,,,0.35,WUHU216HW,2013-06-09 12:08:00,
2013-06-09 07:13:00,54.5,51.6,29.89,ESE,113,0.0,0.0,90,0.02,,,0.35,WUHU216HW,2013-06-09 12:13:00,
2013-06-09 07:18:00,54.5,51.6,29.89,ENE,68,0.0,0.0,90,0.02,,,0.35,WUHU216HW,2013-06-09 12:18:00,
2013-06-09 07:23:00,54.3,51.6,29.90,ESE,113,0.0,0.0,90,0.04,,,0.37,WUHU216HW,2013-06-09 12:23:00,
2013-06-09 07:28:00,54.6,51.8,29.90,East,90,0.0,0.0,90,0.04,,,0.37,WUHU216HW,2013-06-09 12:28:00,
2013-06-09 07:33:00,54.5,51.6,29.90,SE,135,0.0,0.0,90,0.04,,,0.37,WUHU216HW,2013-06-09 12:33:00,
2013-06-09 07:38:00,54.6,51.8,29.90,SE,135,0.0,0.0,90,0.04,,,0.37,WUHU216HW,2013-06-09 12:38:00,
2013-06-09 07:43:00,54.6,51.8,29.90,NNW,338,0.0,0.0,90,0.06,,,0.39,WUHU216HW,2013-06-09 12:43:00,
2013-06-09 07:48:00,54.8,51.9,29.90,ENE,68,1.6,1.6,90,0.06,,,0.39,WUHU216HW,2013-06-09 12:48:00,
2013-06-09 07:53:00,55.0,52.1,29.90,West,270,0.0,1.6,90,0.06,,,0.39,WUHU216HW,2013-06-09 12:53:00,
2013-06-09 07:58:00,55.0,52.1,29.90,East,90,0.0,1.6,90,0.04,,,0.39,WUHU216HW,2013-06-09 12:58:00,
2013-06-09 08:03:00,55.0,52.1,29.90,East,90,0.0,0.0,90,0.04,,,0.39,WUHU216HW,2013-06-09 13:03:00,
2013-06-09 08:08:00,55.2,52.3,29.90,ESE,113,0.0,0.0,90,0.04,,,0.39,WUHU216HW,2013-06-09 13:08:00,
2013-06-09 08:13:00,55.2,52.3,29.90,ESE,113,0.0,0.0,90,0.04,,,0.39,WUHU216HW,2013-06-09 13:13:00,
2013-06-09 08:18:00,55.2,52.3,29.90,ENE,68,0.0,0.0,90,0.04,,,0.39,WUHU216HW,2013-06-09 13:18:00,
2013-06-09 08:23:00,55.2,52.3,29.90,ESE,113,0.0,0.0,90,0.02,,,0.39,WUHU216HW,2013-06-09 13:23:00,
2013-06-09 08:28:00,55.2,52.3,29.90,ESE,113,0.0,0.0,90,0.02,,,0.39,WUHU216HW,2013-06-09 13:28:00,
2013-06-09 08:33:00,55.2,52.3,29.90,ESE,113,0.0,0.0,90,0.04,,,0.41,WUHU216HW,2013-06-09 13:33:00,
2013-06-09 08:38:00,55.4,52.5,29.90,North,0,0.0,0.0,90,0.04,,,0.41,WUHU216HW,2013-06-09 13:38:00,
2013-06-09 08:43:00,55.5,52.7,29.90,East,90,0.0,0.0,90,0.02,,,0.41,WUHU216HW,2013-06-09 13:43:00,
2013-06-09 08:48:00,55.5,52.7,29.90,ESE,113,0.0,0.0,90,0.02,,,0.41,WUHU216HW,2013-06-09 13:48:00,
2013-06-09 08:53:00,55.7,52.8,29.90,ESE,113,0.0,0.0,90,0.02,,,0.41,WUHU216HW,2013-06-09 13:53:00,
2013-06-09 08:58:00,55.5,52.7,29.91,East,90,0.0,0.0,90,0.02,,,0.41,WUHU216HW,2013-06-09 13:58:00,
2013-06-09 09:03:00,55.7,52.8,29.91,ESE,113,0.0,0.0,90,0.02,,,0.41,WUHU216HW,2013-06-09 14:03:00,
2013-06-09 09:08:00,55.9,53.0,29.91,ESE,113,5.3,5.3,90,0.02,,,0.41,WUHU216HW,2013-06-09 14:08:00,
2013-06-09 09:13:00,56.1,53.2,29.91,ESE,113,0.0,5.3,90,0.02,,,0.41,WUHU216HW,2013-06-09 14:13:00,
2013-06-09 09:18:00,56.3,53.4,29.91,North,0,0.0,5.3,90,0.04,,,0.43,WUHU216HW,2013-06-09 14:18:00,
2013-06-09 09:23:00,56.3,53.4,29.91,North,0,0.0,0.0,90,0.04,,,0.43,WUHU216HW,2013-06-09 14:23:00,
2013-06-09 09:28:00,56.3,53.4,29.91,NNW,338,0.0,0.0,90,0.04,,,0.43,WUHU216HW,2013-06-09 14:28:00,
2013-06-09 09:33:00,56.3,53.4,29.91,North,0,0.0,0.0,90,0.02,,,0.43,WUHU216HW,2013-06-09 14:33:00,
2013-06-09 09:38:00,56.3,53.4,29.91,West,270,0.0,0.0,90,0.02,,,0.43,WUHU216HW,2013-06-09 14:38:00,
2013-06-09 09:43:00,56.4,53.6,29.91,South,180,0.0,0.0,90,0.02,,,0.43,WUHU216HW,2013-06-09 14:43:00,
2013-06-09 09:48:00,56.4,53.6,29.91,SE,135,0.0,0.0,90,0.02,,,0.43,WUHU216HW,2013-06-09 14:48:00,
2013-06-09 09:53:00,56.4,53.6,29.92,East,90,0.0,0.0,90,0.04,,,0.45,WUHU216HW,2013-06-09 14:53:00,
2013-06-09 09:58:00,56.4,53.6,29.92,East,90,0.0,0.0,90,0.04,,,0.45,WUHU216HW,2013-06-09 14:58:00,
2013-06-09 10:03:00,56.6,53.7,29.92,SE,135,0.0,0.0,90,0.04,,,0.45,WUHU216HW,2013-06-09 15:03:00,
2013-06-09 10:08:00,56.6,53.7,29.92,ENE,68,0.0,0.0,90,0.04,,,0.45,WUHU216HW,2013-06-09 15:08:00,
2013-06-09 10:13:00,56.8,53.9,29.92,ENE,68,0.0,0.0,90,0.02,,,0.45,WUHU216HW,2013-06-09 15:13:00,
2013-06-09 10:18:00,56.4,53.6,29.92,ENE,68,0.0,0.0,90,0.02,,,0.45,WUHU216HW,2013-06-09 15:18:00,
2013-06-09 10:23:00,56.8,53.9,29.92,East,90,0.0,0.0,90,0.04,,,0.47,WUHU216HW,2013-06-09 15:23:00,
2013-06-09 10:28:00,56.8,53.9,29.92,SSE,158,0.0,0.0,90,0.04,,,0.47,WUHU216HW,2013-06-09 15:28:00,
2013-06-09 10:33:00,56.8,53.9,29.92,NNE,23,0.0,0.0,90,0.04,,,0.47,WUHU216HW,2013-06-09 15:33:00,
2013-06-09 10:38:00,56.8,53.9,29.92,North,0,0.0,0.8,90,0.04,,,0.47,WUHU216HW,2013-06-09 15:38:00,
2013-06-09 10:43:00,56.8,53.9,29.92,East,90,0.0,0.8,90,0.04,,,0.47,WUHU216HW,2013-06-09 15:43:00,
2013-06-09 10:48:00,56.8,53.9,29.92,North,0,0.0,0.0,90,0.02,,,0.47,WUHU216HW,2013-06-09 15:48:00,
2013-06-09 10:53:00,57.0,54.1,29.92,East,90,0.0,0.0,90,0.02,,,0.47,WUHU216HW,2013-06-09 15:53:00,
2013-06-09 10:58:00,57.0,53.8,29.93,ENE,68,0.0,0.0,89,0.02,,,0.47,WUHU216HW,2013-06-09 15:58:00,
2013-06-09 11:03:00,57.0,53.8,29.93,NE,45,0.0,0.0,89,0.02,,,0.47,WUHU216HW,2013-06-09 16:03:00,
2013-06-09 11:08:00,57.0,53.8,29.92,ESE,113,0.0,0.0,89,0.02,,,0.47,WUHU216HW,2013-06-09 16:08:00,
2013-06-09 11:13:00,57.0,53.8,29.93,SSE,158,0.0,0.0,89,0.02,,,0.47,WUHU216HW,2013-06-09 16:13:00,
2013-06-09 11:18:00,57.2,53.9,29.92,West,270,0.0,0.0,89,0.02,,,0.47,WUHU216HW,2013-06-09 16:18:00,
2013-06-09 11:23:00,57.5,54.3,29.92,NNE,23,0.0,0.0,89,0.00,,,0.47,WUHU216HW,2013-06-09 16:23:00,
2013-06-09 11:28:00,57.7,54.5,29.92,NNE,23,0.0,0.0,89,0.00,,,0.47,WUHU216HW,2013-06-09 16:28:00,
2013-06-09 11:33:00,57.7,54.5,29.92,NNE,23,0.0,0.0,89,0.00,,,0.47,WUHU216HW,2013-06-09 16:33:00,
2013-06-09 11:38:00,57.7,54.5,29.92,ESE,113,0.0,0.0,89,0.00,,,0.47,WUHU216HW,2013-06-09 16:38:00,
2013-06-09 11:43:00,57.9,54.7,29.92,SSW,203,0.0,0.0,89,0.00,,,0.47,WUHU216HW,2013-06-09 16:43:00,
2013-06-09 11:48:00,57.7,54.5,29.93,SSW,203,0.0,0.0,89,0.00,,,0.47,WUHU216HW,2013-06-09 16:48:00,
2013-06-09 11:53:00,57.3,53.8,29.93,NE,45,0.0,0.0,88,0.00,,,0.47,WUHU216HW,2013-06-09 16:53:00,
2013-06-09 11:58:00,57.3,53.8,29.93,ESE,113,0.0,0.0,88,0.00,,,0.47,WUHU216HW,2013-06-09 16:58:00,
2013-06-09 12:03:00,57.3,53.8,29.93,SSE,158,0.0,0.0,88,0.00,,,0.47,WUHU216HW,2013-06-09 17:03:00,
2013-06-09 12:08:00,57.3,53.8,29.93,East,90,0.0,0.0,88,0.00,,,0.47,WUHU216HW,2013-06-09 17:08:00,
2013-06-09 12:13:00,57.2,53.6,29.93,NE,45,0.0,0.0,88,0.00,,,0.47,WUHU216HW,2013-06-09 17:13:00,
2013-06-09 12:18:00,57.5,54.0,29.93,NE,45,0.0,0.0,88,0.00,,,0.47,WUHU216HW,2013-06-09 17:18:00,
2013-06-09 12:23:00,57.7,54.2,29.92,ESE,113,0.0,0.0,88,0.00,,,0.47,WUHU216HW,2013-06-09 17:23:00,
2013-06-09 12:28:00,57.9,54.3,29.93,NNE,23,0.0,1.0,88,0.00,,,0.47,WUHU216HW,2013-06-09 17:28:00,
2013-06-09 12:33:00,58.2,54.4,29.93,North,0,0.0,1.0,87,0.00,,,0.47,WUHU216HW,2013-06-09 17:33:00,
2013-06-09 12:38:00,58.8,54.9,29.93,North,0,0.0,0.0,87,0.00,,,0.47,WUHU216HW,2013-06-09 17:38:00,
2013-06-09 12:43:00,59.0,55.1,29.93,North,0,0.0,0.0,87,0.00,,,0.47,WUHU216HW,2013-06-09 17:43:00,
2013-06-09 12:48:00,59.5,55.3,29.93,North,0,0.0,0.0,86,0.00,,,0.47,WUHU216HW,2013-06-09 17:48:00,
2013-06-09 12:53:00,59.5,55.3,29.93,ENE,68,0.0,0.0,86,0.00,,,0.47,WUHU216HW,2013-06-09 17:53:00,
2013-06-09 12:58:00,59.7,55.2,29.93,North,0,0.0,0.0,85,0.00,,,0.47,WUHU216HW,2013-06-09 17:58:00,
2013-06-09 13:03:00,59.5,54.7,29.93,NE,45,0.0,0.0,84,0.00,,,0.47,WUHU216HW,2013-06-09 18:03:00,
2013-06-09 13:08:00,60.0,55.2,29.93,NE,45,0.0,0.0,84,0.00,,,0.47,WUHU216HW,2013-06-09 18:08:00,
2013-06-09 13:13:00,60.0,55.2,29.93,SE,135,0.0,0.0,84,0.00,,,0.47,WUHU216HW,2013-06-09 18:13:00,
2013-06-09 13:19:00,60.4,55.6,29.93,ENE,68,0.0,0.0,84,0.00,,,0.47,WUHU216HW,2013-06-09 18:19:00,
2013-06-09 13:24:00,60.6,55.4,29.93,East,90,0.0,0.0,83,0.00,,,0.47,WUHU216HW,2013-06-09 18:24:00,
2013-06-09 13:29:00,60.9,55.8,29.93,NNE,23,7.8,7.8,83,0.00,,,0.47,WUHU216HW,2013-06-09 18:29:00,
2013-06-09 13:34:00,60.6,54.8,29.93,NNE,23,0.0,7.8,81,0.00,,,0.47,WUHU216HW,2013-06-09 18:34:00,
2013-06-09 13:39:00,60.4,54.9,29.93,NNE,23,0.0,0.0,82,0.00,,,0.47,WUHU216HW,2013-06-09 18:39:00,
2013-06-09 13:44:00,60.9,55.4,29.93,NE,45,0.0,0.0,82,0.00,,,0.47,WUHU216HW,2013-06-09 18:44:00,
2013-06-09 13:49:00,62.4,56.8,29.93,NNW,338,0.0,0.0,82,0.00,,,0.47,WUHU216HW,2013-06-09 18:49:00,
2013-06-09 13:54:00,63.5,56.8,29.93,NNE,23,1.6,1.6,79,0.00,,,0.47,WUHU216HW,2013-06-09 18:54:00,
2013-06-09 13:59:00,63.1,56.1,29.93,NE,45,0.0,1.9,78,0.00,,,0.47,WUHU216HW,2013-06-09 18:59:00,
2013-06-09 14:04:00,62.4,55.4,29.93,ENE,68,0.0,5.8,78,0.00,,,0.47,WUHU216HW,2013-06-09 19:04:00,
2013-06-09 14:09:00,62.2,55.6,29.93,NE,45,0.0,5.8,79,0.00,,,0.47,WUHU216HW,2013-06-09 19:09:00,
2013-06-09 14:14:00,62.2,55.2,29.93,NNE,23,0.0,0.0,78,0.00,,,0.47,WUHU216HW,2013-06-09 19:14:00,
2013-06-09 14:19:00,62.6,55.5,29.93,NNE,23,0.0,0.0,78,0.00,,,0.47,WUHU216HW,2013-06-09 19:19:00,
2013-06-09 14:24:00,62.7,55.7,29.93,North,0,0.0,0.0,78,0.00,,,0.47,WUHU216HW,2013-06-09 19:24:00,
2013-06-09 14:29:00,62.9,55.9,29.93,ENE,68,0.0,0.0,78,0.00,,,0.47,WUHU216HW,2013-06-09 19:29:00,
2013-06-09 14:34:00,63.1,56.1,29.93,NNE,23,2.5,5.3,78,0.00,,,0.47,WUHU216HW,2013-06-09 19:34:00,
2013-06-09 14:39:00,63.3,55.9,29.93,North,0,0.0,5.3,77,0.00,,,0.47,WUHU216HW,2013-06-09 19:39:00,
2013-06-09 14:44:00,63.1,55.7,29.93,NE,45,0.0,2.5,77,0.00,,,0.47,WUHU216HW,2013-06-09 19:44:00,
2013-06-09 14:49:00,62.7,55.4,29.93,NE,45,0.0,0.0,77,0.00,,,0.47,WUHU216HW,2013-06-09 19:49:00,
2013-06-09 14:54:00,62.2,54.8,29.93,NE,45,0.0,0.0,77,0.00,,,0.47,WUHU216HW,2013-06-09 19:54:00,
2013-06-09 14:59:00,61.8,54.9,29.93,NE,45,0.0,0.0,78,0.00,,,0.47,WUHU216HW,2013-06-09 19:59:00,
2013-06-09 15:04:00,61.5,54.7,29.93,NE,45,0.0,0.0,78,0.00,,,0.47,WUHU216HW,2013-06-09 20:04:00,
2013-06-09 15:09:00,61.3,54.8,29.93,NE,45,0.0,0.0,79,0.00,,,0.47,WUHU216HW,2013-06-09 20:09:00,
2013-06-09 15:14:00,61.3,54.8,29.93,NE,45,0.0,5.3,79,0.00,,,0.47,WUHU216HW,2013-06-09 20:14:00,
2013-06-09 15:19:00,61.7,54.9,29.93,NNE,23,0.0,5.3,79,0.00,,,0.47,WUHU216HW,2013-06-09 20:19:00,
2013-06-09 15:24:00,62.2,55.2,29.93,NNE,23,0.0,2.8,78,0.00,,,0.47,WUHU216HW,2013-06-09 20:24:00,
2013-06-09 15:29:00,63.1,55.7,29.93,NNE,23,0.0,0.0,77,0.00,,,0.47,WUHU216HW,2013-06-09 20:29:00,
2013-06-09 15:34:00,63.5,55.0,29.93,NNE,23,6.6,8.9,75,0.00,,,0.47,WUHU216HW,2013-06-09 20:34:00,
2013-06-09 15:39:00,62.7,55.0,29.94,NNE,23,1.4,8.9,75,0.00,,,0.47,WUHU216HW,2013-06-09 20:39:00,
2013-06-09 15:44:00,62.7,55.0,29.94,NNE,23,0.0,6.6,76,0.00,,,0.47,WUHU216HW,2013-06-09 20:44:00,
2013-06-09 15:49:00,62.7,55.0,29.93,NNE,23,2.1,3.3,76,0.00,,,0.47,WUHU216HW,2013-06-09 20:49:00,
2013-06-09 15:54:00,62.4,54.6,29.93,NNE,23,0.0,3.3,76,0.00,,,0.47,WUHU216HW,2013-06-09 20:54:00,
2013-06-09 15:59:00,62.6,55.2,29.93,NNE,23,0.0,2.1,77,0.00,,,0.47,WUHU216HW,2013-06-09 20:59:00,
2013-06-09 16:04:00,63.1,55.0,29.93,NNE,23,0.8,1.0,75,0.00,,,0.47,WUHU216HW,2013-06-09 21:04:00,
2013-06-09 16:09:00,62.7,54.6,29.93,North,0,7.3,7.3,75,0.00,,,0.47,WUHU216HW,2013-06-09 21:09:00,
2013-06-09 16:14:00,62.9,54.8,29.93,NNE,23,2.8,7.3,75,0.00,,,0.47,WUHU216HW,2013-06-09 21:14:00,
2013-06-09 16:19:00,63.8,55.4,29.93,NNE,23,0.0,7.3,75,0.00,,,0.47,WUHU216HW,2013-06-09 21:19:00,
2013-06-09 16:24:00,64.7,56.2,29.93,NNE,14,8.3,10.0,74,0.00,,,0.47,WUHU216HW,2013-06-09 21:24:00,
2013-06-09 16:29:00,64.9,56.0,29.93,NNE,23,6.1,10.0,73,0.00,,,0.47,WUHU216HW,2013-06-09 21:29:00,
2013-06-09 16:36:00,64.5,55.3,29.93,NNE,23,4.4,6.1,72,0.00,,,0.47,WUHU216HW,2013-06-09 21:36:00,
2013-06-09 16:41:00,64.5,55.7,29.93,North,0,5.3,7.3,73,0.00,,,0.47,WUHU216HW,2013-06-09 21:41:00,
2013-06-09 16:46:00,64.9,55.7,29.94,NNE,23,8.6,11.4,72,0.00,,,0.47,WUHU216HW,2013-06-09 21:46:00,
2013-06-09 16:51:00,65.1,55.5,29.93,NNE,32,5.6,11.4,71,0.00,,,0.47,WUHU216HW,2013-06-09 21:51:00,
2013-06-09 16:56:00,65.4,55.8,29.93,NNE,23,3.0,7.5,71,0.00,,,0.47,WUHU216HW,2013-06-09 21:56:00,
2013-06-09 17:01:00,65.8,56.5,29.93,NE,45,0.0,6.1,72,0.00,,,0.47,WUHU216HW,2013-06-09 22:01:00,
2013-06-09 17:06:00,65.8,56.5,29.94,NE,45,0.0,6.1,72,0.00,,,0.47,WUHU216HW,2013-06-09 22:06:00,
2013-06-09 17:11:00,65.4,56.2,29.93,NNE,23,0.0,0.0,72,0.00,,,0.47,WUHU216HW,2013-06-09 22:11:00,
2013-06-09 17:16:00,65.1,55.8,29.93,NNE,23,0.0,0.0,72,0.00,,,0.47,WUHU216HW,2013-06-09 22:16:00,
2013-06-09 17:21:00,64.4,55.5,29.93,NNE,23,3.3,3.3,73,0.00,,,0.47,WUHU216HW,2013-06-09 22:21:00,
2013-06-09 17:26:00,63.6,54.8,29.93,NNE,23,5.5,5.5,73,0.00,,,0.47,WUHU216HW,2013-06-09 22:26:00,
2013-06-09 17:31:00,63.5,55.0,29.93,North,0,9.5,9.5,74,0.00,,,0.47,WUHU216HW,2013-06-09 22:31:00,
2013-06-09 17:36:00,63.6,55.2,29.93,NNE,23,3.0,9.5,74,0.00,,,0.47,WUHU216HW,2013-06-09 22:36:00,
2013-06-09 17:41:00,64.0,55.2,29.93,NNE,23,4.4,9.5,73,0.00,,,0.47,WUHU216HW,2013-06-09 22:41:00,
2013-06-09 17:46:00,64.2,55.4,29.93,North,0,7.3,8.0,73,0.00,,,0.47,WUHU216HW,2013-06-09 22:46:00,
2013-06-09 17:51:00,64.2,55.4,29.93,North,0,10.0,10.0,73,0.00,,,0.47,WUHU216HW,2013-06-09 22:51:00,
2013-06-09 17:56:00,64.2,55.4,29.93,North,356,4.7,10.0,73,0.00,,,0.47,WUHU216HW,2013-06-09 22:56:00,
2013-06-09 18:01:00,64.7,55.9,29.94,NNW,338,8.5,8.6,73,0.00,,,0.47,WUHU216HW,2013-06-09 23:01:00,
2013-06-09 18:06:00,64.9,55.3,29.93,North,0,8.4,8.6,71,0.00,,,0.47,WUHU216HW,2013-06-09 23:06:00,
2013-06-09 18:11:00,65.4,55.8,29.93,North,0,7.3,8.4,71,0.00,,,0.47,WUHU216HW,2013-06-09 23:11:00,
2013-06-09 18:16:00,66.7,56.6,29.93,NNW,347,10.0,11.1,70,0.00,,,0.47,WUHU216HW,2013-06-09 23:16:00,
2013-06-09 18:21:00,67.6,56.6,29.93,North,0,9.5,12.0,68,0.00,,,0.47,WUHU216HW,2013-06-09 23:21:00,
2013-06-09 18:26:00,66.9,55.7,29.93,NNW,338,7.5,12.0,69,0.00,,,0.47,WUHU216HW,2013-06-09 23:26:00,
2013-06-09 18:31:00,65.3,55.6,29.93,NNW,348,6.5,9.8,71,0.00,,,0.47,WUHU216HW,2013-06-09 23:31:00,
2013-06-09 18:36:00,64.9,55.3,29.93,North,0,10.3,10.3,71,0.00,,,0.47,WUHU216HW,2013-06-09 23:36:00,
2013-06-09 18:41:00,63.6,54.5,29.94,North,359,7.5,10.3,72,0.00,,,0.47,WUHU216HW,2013-06-09 23:41:00,
2013-06-09 18:46:00,63.3,54.8,29.93,NNW,338,12.0,12.0,74,0.00,,,0.47,WUHU216HW,2013-06-09 23:46:00,
2013-06-09 18:51:00,62.9,54.5,29.94,NNW,338,4.8,12.0,74,0.00,,,0.47,WUHU216HW,2013-06-09 23:51:00,
2013-06-09 18:56:00,62.6,54.5,29.93,North,353,7.1,12.0,75,0.00,,,0.47,WUHU216HW,2013-06-09 23:56:00,
2013-06-09 19:01:00,62.4,54.3,29.93,North,1,6.1,9.8,75,0.00,,,0.47,WUHU216HW,2013-06-10 00:01:00,
2013-06-09 19:06:00,62.6,54.5,29.94,North,0,7.5,7.5,75,0.00,,,0.47,WUHU216HW,2013-06-10 00:06:00,
2013-06-09 19:11:00,62.7,54.6,29.94,NNE,15,8.3,11.6,75,0.00,,,0.47,WUHU216HW,2013-06-10 00:11:00,
2013-06-09 19:16:00,62.4,54.3,29.94,North,0,3.6,11.6,75,0.00,,,0.47,WUHU216HW,2013-06-10 00:16:00,
2013-06-09 19:21:00,62.4,54.3,29.94,NNE,23,4.8,6.9,75,0.00,,,0.47,WUHU216HW,2013-06-10 00:21:00,
2013-06-09 19:26:00,62.4,54.3,29.94,North,0,8.0,8.0,75,0.00,,,0.47,WUHU216HW,2013-06-10 00:26:00,
2013-06-09 19:31:00,62.2,54.5,29.93,North,7,4.4,8.0,76,0.00,,,0.47,WUHU216HW,2013-06-10 00:31:00,
2013-06-09 19:36:00,61.7,54.0,29.94,North,0,8.4,8.4,76,0.00,,,0.47,WUHU216HW,2013-06-10 00:36:00,
2013-06-09 19:41:00,61.5,54.2,29.93,NNE,13,6.3,8.4,77,0.00,,,0.47,WUHU216HW,2013-06-10 00:41:00,
2013-06-09 19:46:00,61.5,54.2,29.94,NNE,23,0.0,7.3,77,0.00,,,0.47,WUHU216HW,2013-06-10 00:46:00,
2013-06-09 19:51:00,61.5,54.2,29.93,NNE,23,0.0,5.3,77,0.00,,,0.47,WUHU216HW,2013-06-10 00:51:00,
2013-06-09 19:56:00,61.5,54.6,29.93,NNE,23,6.4,6.4,78,0.00,,,0.47,WUHU216HW,2013-06-10 00:56:00,
2013-06-09 20:01:00,61.1,54.2,29.94,NNE,23,3.3,6.4,78,0.00,,,0.47,WUHU216HW,2013-06-10 01:01:00,
2013-06-09 20:06:00,60.9,54.4,29.94,North,0,4.1,4.1,79,0.00,,,0.47,WUHU216HW,2013-06-10 01:06:00,
2013-06-09 20:11:00,60.6,54.1,29.94,NNE,23,1.6,4.1,79,0.00,,,0.47,WUHU216HW,2013-06-10 01:11:00,
2013-06-09 20:16:00,60.6,54.1,29.93,NNE,23,0.0,2.1,79,0.00,,,0.47,WUHU216HW,2013-06-10 01:16:00,
2013-06-09 20:21:00,60.4,53.9,29.94,NNE,23,0.0,0.0,79,0.00,,,0.47,WUHU216HW,2013-06-10 01:21:00,
2013-06-09 20:26:00,60.0,53.6,29.93,NNE,23,0.0,0.0,79,0.00,,,0.47,WUHU216HW,2013-06-10 01:26:00,
2013-06-09 20:31:00,60.0,53.9,29.94,NNE,23,0.0,0.0,80,0.00,,,0.47,WUHU216HW,2013-06-10 01:31:00,
2013-06-09 20:36:00,59.9,53.7,29.94,NNE,23,0.0,0.0,80,0.00,,,0.47,WUHU216HW,2013-06-10 01:36:00,
2013-06-09 20:41:00,59.7,53.6,29.94,NNE,23,0.0,0.0,80,0.00,,,0.47,WUHU216HW,2013-06-10 01:41:00,
2013-06-09 20:46:00,59.5,53.4,29.94,NNE,23,0.0,0.0,80,0.00,,,0.47,WUHU216HW,2013-06-10 01:46:00,
2013-06-09 20:51:00,59.3,53.2,29.94,NNE,23,0.0,0.0,80,0.00,,,0.47,WUHU216HW,2013-06-10 01:51:00,
2013-06-09 20:56:00,58.8,53.0,29.94,NNE,23,0.0,0.0,81,0.00,,,0.47,WUHU216HW,2013-06-10 01:56:00,
2013-06-09 21:01:00,58.8,53.0,29.94,NNE,23,0.0,0.0,81,0.00,,,0.47,WUHU216HW,2013-06-10 02:01:00,
2013-06-09 21:06:00,59.3,53.5,29.94,NNE,23,0.0,0.0,81,0.00,,,0.47,WUHU216HW,2013-06-10 02:06:00,
2013-06-09 21:11:00,60.0,53.9,29.94,NNE,23,0.0,0.0,80,0.00,,,0.47,WUHU216HW,2013-06-10 02:11:00,
2013-06-09 21:16:00,60.0,53.9,29.94,NNE,23,0.0,0.0,80,0.00,,,0.47,WUHU216HW,2013-06-10 02:16:00,
2013-06-09 21:21:00,59.3,53.2,29.94,NNE,23,0.0,0.0,80,0.00,,,0.47,WUHU216HW,2013-06-10 02:21:00,
2013-06-09 21:26:00,58.2,52.4,29.94,NNE,23,0.0,0.0,81,0.00,,,0.47,WUHU216HW,2013-06-10 02:26:00,
2013-06-09 21:31:00,57.7,51.9,29.94,NNE,23,0.0,0.0,81,0.00,,,0.47,WUHU216HW,2013-06-10 02:31:00,
2013-06-09 21:36:00,57.5,52.0,29.94,NNE,23,0.0,0.0,82,0.00,,,0.47,WUHU216HW,2013-06-10 02:36:00,
2013-06-09 21:41:00,57.2,51.7,29.95,NNE,23,0.0,0.0,82,0.00,,,0.47,WUHU216HW,2013-06-10 02:41:00,
2013-06-09 21:46:00,57.0,51.5,29.95,NNE,23,0.0,0.0,82,0.00,,,0.47,WUHU216HW,2013-06-10 02:46:00,
2013-06-09 21:51:00,56.6,51.1,29.95,NNE,23,0.0,0.0,82,0.00,,,0.47,WUHU216HW,2013-06-10 02:51:00,
2013-06-09 21:56:00,56.3,51.1,29.95,NNE,23,0.0,0.0,83,0.00,,,0.47,WUHU216HW,2013-06-10 02:56:00,
2013-06-09 22:01:00,56.1,50.9,29.95,NNE,23,0.0,0.0,83,0.00,,,0.47,WUHU216HW,2013-06-10 03:01:00,
2013-06-09 22:06:00,56.1,51.2,29.95,NNE,23,0.0,0.0,84,0.00,,,0.47,WUHU216HW,2013-06-10 03:06:00,
2013-06-09 22:11:00,56.1,51.2,29.95,NNE,23,0.0,0.0,84,0.00,,,0.47,WUHU216HW,2013-06-10 03:11:00,
2013-06-09 22:16:00,56.3,51.8,29.96,NNE,23,0.0,0.0,85,0.00,,,0.47,WUHU216HW,2013-06-10 03:16:00,
2013-06-09 22:21:00,56.3,51.8,29.95,NNE,23,0.0,0.0,85,0.00,,,0.47,WUHU216HW,2013-06-10 03:21:00,
2013-06-09 22:26:00,56.1,51.6,29.96,NNE,23,0.0,0.0,85,0.00,,,0.47,WUHU216HW,2013-06-10 03:26:00,
2013-06-09 22:31:00,56.1,51.6,29.95,NNE,23,0.0,0.0,85,0.00,,,0.47,WUHU216HW,2013-06-10 03:31:00,
2013-06-09 22:36:00,55.9,51.4,29.96,NNE,23,0.0,0.0,85,0.00,,,0.47,WUHU216HW,2013-06-10 03:36:00,
2013-06-09 22:41:00,55.5,51.0,29.96,NNE,23,0.0,0.0,85,0.00,,,0.47,WUHU216HW,2013-06-10 03:41:00,
2013-06-09 22:46:00,55.2,50.7,29.96,NNE,23,0.0,0.0,85,0.00,,,0.47,WUHU216HW,2013-06-10 03:46:00,
2013-06-09 22:51:00,55.0,50.7,29.96,NNE,23,0.0,0.0,85,0.00,,,0.47,WUHU216HW,2013-06-10 03:51:00,
2013-06-09 22:56:00,54.6,50.2,29.96,NNE,23,0.0,0.0,85,0.00,,,0.47,WUHU216HW,2013-06-10 03:56:00,
2013-06-09 23:01:00,54.3,49.8,29.96,NNE,23,0.0,0.0,85,0.00,,,0.47,WUHU216HW,2013-06-10 04:01:00,
2013-06-09 23:02:00,54.1,49.6,29.95,NNE,23,0.0,0.0,85,0.00,,,0.47,WUHU216HW,2013-06-10 04:02:00,
2013-06-09 23:07:00,53.7,49.3,29.96,NNE,23,0.0,0.0,85,0.00,,,0.47,WUHU216HW,2013-06-10 04:07:00,
2013-06-09 23:12:00,53.2,48.8,29.95,NNE,23,0.0,0.0,85,0.00,,,0.47,WUHU216HW,2013-06-10 04:12:00,
2013-06-09 23:17:00,52.8,48.4,29.95,NNE,23,0.0,0.0,85,0.00,,,0.47,WUHU216HW,2013-06-10 04:17:00,
2013-06-09 23:22:00,52.5,48.1,29.95,NNE,23,0.0,0.0,85,0.00,,,0.47,WUHU216HW,2013-06-10 04:22:00,
2013-06-09 23:27:00,52.1,47.7,29.94,NNE,23,0.0,0.0,85,0.00,,,0.47,WUHU216HW,2013-06-10 04:27:00,
2013-06-09 23:32:00,51.6,47.2,29.95,NNE,23,0.0,0.0,85,0.00,,,0.47,WUHU216HW,2013-06-10 04:32:00,
2013-06-09 23:37:00,51.6,47.2,29.94,NNE,23,0.0,0.0,85,0.00,,,0.47,WUHU216HW,2013-06-10 04:37:00,
2013-06-09 23:42:00,51.4,47.3,29.95,NNE,23,0.0,0.0,86,0.00,,,0.47,WUHU216HW,2013-06-10 04:42:00,
2013-06-09 23:47:00,51.4,47.3,29.95,NNE,23,0.0,0.0,86,0.00,,,0.47,WUHU216HW,2013-06-10 04:47:00,
2013-06-09 23:52:00,51.0,46.6,29.95,NNE,23,0.0,0.0,85,0.00,,,0.47,WUHU216HW,2013-06-10 04:52:00,
2013-06-09 23:57:00,51.0,46.6,29.95,NW,315,0.0,0.0,85,0.00,,,0.47,WUHU216HW,2013-06-10 04:57:00,